sensor_id;sensor_type;location;lat;lon;timestamp;pressure;altitude;pressure_sealevel;temperature;humidity
2673;BME280;1346;51.558;6.996;2022-09-09T00:01:27;100323.88;;;15.72;100.00
2673;BME280;1346;51.558;6.996;2022-09-09T00:04:03;100315.78;;;15.72;100.00
2673;BME280;1346;51.558;6.996;2022-09-09T00:06:43;100323.69;;;15.73;100.00
2673;BME280;1346;51.558;6.996;2022-09-09T00:09:15;100320.78;;;15.75;100.00
2673;BME280;1346;51.558;6.996;2022-09-09T00:11:47;100325.19;;;15.76;100.00
2673;BME280;1346;51.558;6.996;2022-09-09T00:14:22;100320.59;;;15.77;100.00
2673;BME280;1346;51.558;6.996;2022-09-09T00:16:55;100318.53;;;15.79;100.00
2673;BME280;1346;51.558;6.996;2022-09-09T00:19:36;100307.72;;;15.79;100.00
2673;BME280;1346;51.558;6.996;2022-09-09T00:22:15;100309.59;;;15.78;100.00
2673;BME280;1346;51.558;6.996;2022-09-09T00:24:45;100315.84;;;15.79;100.00
2673;BME280;1346;51.558;6.996;2022-09-09T00:27:21;100322.94;;;15.80;100.00
2673;BME280;1346;51.558;6.996;2022-09-09T00:29:54;100323.94;;;15.79;100.00
2673;BME280;1346;51.558;6.996;2022-09-09T00:32:27;100322.28;;;15.78;100.00
2673;BME280;1346;51.558;6.996;2022-09-09T00:35:03;100329.94;;;15.74;100.00
2673;BME280;1346;51.558;6.996;2022-09-09T00:37:38;100319.72;;;15.69;100.00
2673;BME280;1346;51.558;6.996;2022-09-09T00:40:23;100320.28;;;15.65;100.00
2673;BME280;1346;51.558;6.996;2022-09-09T00:43:04;100312.13;;;15.58;100.00
2673;BME280;1346;51.558;6.996;2022-09-09T00:46:02;100312.09;;;15.52;100.00
2673;BME280;1346;51.558;6.996;2022-09-09T00:48:40;100327.38;;;15.45;100.00
2673;BME280;1346;51.558;6.996;2022-09-09T00:51:19;100311.94;;;15.39;100.00
2673;BME280;1346;51.558;6.996;2022-09-09T00:54:25;100318.53;;;15.36;100.00
2673;BME280;1346;51.558;6.996;2022-09-09T00:57:23;100314.81;;;15.37;100.00
2673;BME280;1346;51.558;6.996;2022-09-09T01:00:15;100313.16;;;15.36;100.00
2673;BME280;1346;51.558;6.996;2022-09-09T01:02:57;100318.19;;;15.39;100.00
2673;BME280;1346;51.558;6.996;2022-09-09T01:05:38;100322.81;;;15.45;100.00
2673;BME280;1346;51.558;6.996;2022-09-09T01:08:23;100317.88;;;15.49;100.00
2673;BME280;1346;51.558;6.996;2022-09-09T01:10:56;100317.94;;;15.55;100.00
2673;BME280;1346;51.558;6.996;2022-09-09T01:13:28;100326.28;;;15.60;100.00
2673;BME280;1346;51.558;6.996;2022-09-09T01:15:57;100320.50;;;15.63;100.00
2673;BME280;1346;51.558;6.996;2022-09-09T01:18:30;100320.94;;;15.67;100.00
2673;BME280;1346;51.558;6.996;2022-09-09T01:21:09;100314.94;;;15.71;100.00
2673;BME280;1346;51.558;6.996;2022-09-09T01:24:09;100315.59;;;15.73;100.00
2673;BME280;1346;51.558;6.996;2022-09-09T01:26:45;100305.22;;;15.77;100.00
2673;BME280;1346;51.558;6.996;2022-09-09T01:29:15;100304.38;;;15.77;100.00
2673;BME280;1346;51.558;6.996;2022-09-09T01:31:53;100304.38;;;15.77;100.00
2673;BME280;1346;51.558;6.996;2022-09-09T01:34:22;100303.94;;;15.73;100.00
2673;BME280;1346;51.558;6.996;2022-09-09T01:36:57;100309.28;;;15.66;100.00
2673;BME280;1346;51.558;6.996;2022-09-09T01:39:25;100301.13;;;15.60;100.00
2673;BME280;1346;51.558;6.996;2022-09-09T01:41:55;100295.69;;;15.53;100.00
2673;BME280;1346;51.558;6.996;2022-09-09T01:44:23;100304.19;;;15.50;100.00
2673;BME280;1346;51.558;6.996;2022-09-09T01:46:51;100303.28;;;15.43;100.00
2673;BME280;1346;51.558;6.996;2022-09-09T01:49:18;100295.56;;;15.40;100.00
2673;BME280;1346;51.558;6.996;2022-09-09T01:51:49;100306.91;;;15.36;100.00
2673;BME280;1346;51.558;6.996;2022-09-09T01:54:16;100297.75;;;15.30;100.00
2673;BME280;1346;51.558;6.996;2022-09-09T01:56:54;100292.25;;;15.24;100.00
2673;BME280;1346;51.558;6.996;2022-09-09T01:59:44;100294.69;;;15.19;100.00
2673;BME280;1346;51.558;6.996;2022-09-09T02:02:19;100291.53;;;15.15;100.00
2673;BME280;1346;51.558;6.996;2022-09-09T02:04:51;100301.06;;;15.11;100.00
2673;BME280;1346;51.558;6.996;2022-09-09T02:07:33;100299.56;;;15.09;100.00
2673;BME280;1346;51.558;6.996;2022-09-09T02:10:11;100293.72;;;15.05;100.00
2673;BME280;1346;51.558;6.996;2022-09-09T02:12:47;100300.16;;;15.04;100.00
2673;BME280;1346;51.558;6.996;2022-09-09T02:15:24;100299.13;;;15.05;100.00
2673;BME280;1346;51.558;6.996;2022-09-09T02:17:57;100297.72;;;15.09;100.00
2673;BME280;1346;51.558;6.996;2022-09-09T02:20:26;100294.44;;;15.14;100.00
2673;BME280;1346;51.558;6.996;2022-09-09T02:22:55;100296.38;;;15.20;100.00
2673;BME280;1346;51.558;6.996;2022-09-09T02:25:25;100299.16;;;15.26;100.00
2673;BME280;1346;51.558;6.996;2022-09-09T02:27:55;100309.78;;;15.34;100.00
2673;BME280;1346;51.558;6.996;2022-09-09T02:30:24;100304.69;;;15.39;100.00
2673;BME280;1346;51.558;6.996;2022-09-09T02:32:53;100306.81;;;15.44;100.00
2673;BME280;1346;51.558;6.996;2022-09-09T02:35:25;100297.50;;;15.46;100.00
2673;BME280;1346;51.558;6.996;2022-09-09T02:37:56;100299.59;;;15.51;100.00
2673;BME280;1346;51.558;6.996;2022-09-09T02:40:26;100298.19;;;15.55;100.00
2673;BME280;1346;51.558;6.996;2022-09-09T02:42:55;100299.28;;;15.60;100.00
2673;BME280;1346;51.558;6.996;2022-09-09T02:45:25;100305.13;;;15.64;100.00
2673;BME280;1346;51.558;6.996;2022-09-09T02:47:59;100306.59;;;15.66;100.00
2673;BME280;1346;51.558;6.996;2022-09-09T02:50:34;100297.28;;;15.69;100.00
2673;BME280;1346;51.558;6.996;2022-09-09T02:53:08;100304.13;;;15.71;100.00
2673;BME280;1346;51.558;6.996;2022-09-09T02:55:41;100303.94;;;15.73;100.00
2673;BME280;1346;51.558;6.996;2022-09-09T02:58:13;100300.03;;;15.76;100.00
2673;BME280;1346;51.558;6.996;2022-09-09T03:00:45;100304.19;;;15.78;100.00
2673;BME280;1346;51.558;6.996;2022-09-09T03:03:12;100302.13;;;15.80;100.00
2673;BME280;1346;51.558;6.996;2022-09-09T03:05:42;100306.31;;;15.83;100.00
2673;BME280;1346;51.558;6.996;2022-09-09T03:08:09;100298.22;;;15.83;100.00
2673;BME280;1346;51.558;6.996;2022-09-09T03:10:36;100294.88;;;15.81;100.00
2673;BME280;1346;51.558;6.996;2022-09-09T03:13:03;100295.91;;;15.80;100.00
2673;BME280;1346;51.558;6.996;2022-09-09T03:15:33;100297.31;;;15.76;100.00
2673;BME280;1346;51.558;6.996;2022-09-09T03:18:00;100295.22;;;15.71;100.00
2673;BME280;1346;51.558;6.996;2022-09-09T03:20:29;100298.88;;;15.63;100.00
2673;BME280;1346;51.558;6.996;2022-09-09T03:22:57;100291.19;;;15.60;100.00
2673;BME280;1346;51.558;6.996;2022-09-09T03:25:25;100296.97;;;15.57;100.00
2673;BME280;1346;51.558;6.996;2022-09-09T03:27:54;100289.63;;;15.51;100.00
2673;BME280;1346;51.558;6.996;2022-09-09T03:30:21;100285.22;;;15.44;100.00
2673;BME280;1346;51.558;6.996;2022-09-09T03:32:50;100284.94;;;15.39;100.00
2673;BME280;1346;51.558;6.996;2022-09-09T03:35:17;100288.22;;;15.34;100.00
2673;BME280;1346;51.558;6.996;2022-09-09T03:37:44;100288.59;;;15.31;100.00
2673;BME280;1346;51.558;6.996;2022-09-09T03:40:12;100285.25;;;15.29;100.00
2673;BME280;1346;51.558;6.996;2022-09-09T03:42:39;100280.25;;;15.26;100.00
2673;BME280;1346;51.558;6.996;2022-09-09T03:45:09;100287.50;;;15.26;100.00
2673;BME280;1346;51.558;6.996;2022-09-09T03:47:37;100286.69;;;15.25;100.00
2673;BME280;1346;51.558;6.996;2022-09-09T03:50:08;100284.41;;;15.29;100.00
2673;BME280;1346;51.558;6.996;2022-09-09T03:52:36;100284.84;;;15.32;100.00
2673;BME280;1346;51.558;6.996;2022-09-09T03:55:05;100281.34;;;15.32;100.00
2673;BME280;1346;51.558;6.996;2022-09-09T03:57:32;100284.06;;;15.32;100.00
2673;BME280;1346;51.558;6.996;2022-09-09T04:00:02;100284.06;;;15.32;100.00
2673;BME280;1346;51.558;6.996;2022-09-09T04:02:29;100285.72;;;15.33;100.00
2673;BME280;1346;51.558;6.996;2022-09-09T04:04:56;100285.72;;;15.33;100.00
2673;BME280;1346;51.558;6.996;2022-09-09T04:07:24;100289.44;;;15.32;100.00
2673;BME280;1346;51.558;6.996;2022-09-09T04:09:53;100292.50;;;15.29;100.00
2673;BME280;1346;51.558;6.996;2022-09-09T04:12:20;100283.78;;;15.27;100.00
2673;BME280;1346;51.558;6.996;2022-09-09T04:14:48;100285.44;;;15.28;100.00
2673;BME280;1346;51.558;6.996;2022-09-09T04:17:16;100280.25;;;15.26;100.00
2673;BME280;1346;51.558;6.996;2022-09-09T04:19:43;100285.25;;;15.29;100.00
2673;BME280;1346;51.558;6.996;2022-09-09T04:22:10;100283.19;;;15.31;100.00
2673;BME280;1346;51.558;6.996;2022-09-09T04:24:38;100281.16;;;15.33;100.00
2673;BME280;1346;51.558;6.996;2022-09-09T04:27:05;100284.50;;;15.35;100.00
2673;BME280;1346;51.558;6.996;2022-09-09T04:29:32;100280.41;;;15.39;100.00
2673;BME280;1346;51.558;6.996;2022-09-09T04:31:59;100283.09;;;15.39;100.00
2673;BME280;1346;51.558;6.996;2022-09-09T04:34:25;100286.44;;;15.41;100.00
2673;BME280;1346;51.558;6.996;2022-09-09T04:36:52;100284.59;;;15.42;100.00
2673;BME280;1346;51.558;6.996;2022-09-09T04:39:20;100287.09;;;15.43;100.00
2673;BME280;1346;51.558;6.996;2022-09-09T04:41:48;100292.94;;;15.47;100.00
2673;BME280;1346;51.558;6.996;2022-09-09T04:44:15;100296.09;;;15.50;100.00
2673;BME280;1346;51.558;6.996;2022-09-09T04:46:42;100297.53;;;15.53;100.00
2673;BME280;1346;51.558;6.996;2022-09-09T04:49:09;100295.28;;;15.56;100.00
2673;BME280;1346;51.558;6.996;2022-09-09T04:51:36;100283.09;;;15.60;100.00
2673;BME280;1346;51.558;6.996;2022-09-09T04:54:03;100296.19;;;15.63;100.00
2673;BME280;1346;51.558;6.996;2022-09-09T04:56:31;100294.78;;;15.67;100.00
2673;BME280;1346;51.558;6.996;2022-09-09T04:58:59;100293.53;;;15.70;100.00
2673;BME280;1346;51.558;6.996;2022-09-09T05:01:28;100294.81;;;15.74;100.00
2673;BME280;1346;51.558;6.996;2022-09-09T05:03:55;100292.56;;;15.78;100.00
2673;BME280;1346;51.558;6.996;2022-09-09T05:06:22;100290.50;;;15.80;100.00
2673;BME280;1346;51.558;6.996;2022-09-09T05:08:50;100289.06;;;15.84;100.00
2673;BME280;1346;51.558;6.996;2022-09-09T05:11:19;100299.47;;;15.87;100.00
2673;BME280;1346;51.558;6.996;2022-09-09T05:13:47;100294.06;;;15.87;100.00
2673;BME280;1346;51.558;6.996;2022-09-09T05:16:18;100289.31;;;15.89;100.00
2673;BME280;1346;51.558;6.996;2022-09-09T05:18:46;100294.34;;;15.92;100.00
2673;BME280;1346;51.558;6.996;2022-09-09T05:21:15;100284.16;;;15.94;100.00
2673;BME280;1346;51.558;6.996;2022-09-09T05:23:42;100289.56;;;15.94;100.00
2673;BME280;1346;51.558;6.996;2022-09-09T05:26:13;100288.75;;;15.93;100.00
2673;BME280;1346;51.558;6.996;2022-09-09T05:28:41;100284.78;;;15.96;100.00
2673;BME280;1346;51.558;6.996;2022-09-09T05:31:09;100287.94;;;15.99;100.00
2673;BME280;1346;51.558;6.996;2022-09-09T05:33:40;100287.53;;;16.02;100.00
2673;BME280;1346;51.558;6.996;2022-09-09T05:36:10;100285.28;;;16.06;100.00
2673;BME280;1346;51.558;6.996;2022-09-09T05:38:39;100293.81;;;16.09;100.00
2673;BME280;1346;51.558;6.996;2022-09-09T05:41:07;100293.41;;;16.12;100.00
2673;BME280;1346;51.558;6.996;2022-09-09T05:43:35;100285.09;;;16.14;100.00
2673;BME280;1346;51.558;6.996;2022-09-09T05:46:06;100282.84;;;16.17;100.00
2673;BME280;1346;51.558;6.996;2022-09-09T05:48:35;100282.69;;;16.19;100.00
2673;BME280;1346;51.558;6.996;2022-09-09T05:51:05;100285.38;;;16.19;100.00
2673;BME280;1346;51.558;6.996;2022-09-09T05:53:33;100285.38;;;16.19;100.00
2673;BME280;1346;51.558;6.996;2022-09-09T05:56:01;100284.31;;;16.20;100.00
2673;BME280;1346;51.558;6.996;2022-09-09T05:58:30;100290.59;;;16.20;100.00
2673;BME280;1346;51.558;6.996;2022-09-09T06:01:05;100276.03;;;16.21;100.00
2673;BME280;1346;51.558;6.996;2022-09-09T06:03:35;100287.03;;;16.20;100.00
2673;BME280;1346;51.558;6.996;2022-09-09T06:06:07;100288.06;;;16.19;100.00
2673;BME280;1346;51.558;6.996;2022-09-09T06:08:35;100289.09;;;16.18;100.00
2673;BME280;1346;51.558;6.996;2022-09-09T06:11:06;100294.50;;;16.18;100.00
2673;BME280;1346;51.558;6.996;2022-09-09T06:13:33;100291.38;;;16.21;100.00
2673;BME280;1346;51.558;6.996;2022-09-09T06:16:01;100294.31;;;16.26;100.00
2673;BME280;1346;51.558;6.996;2022-09-09T06:18:28;100289.16;;;16.31;100.00
2673;BME280;1346;51.558;6.996;2022-09-09T06:20:57;100293.16;;;16.41;100.00
2673;BME280;1346;51.558;6.996;2022-09-09T06:23:26;100298.25;;;16.51;100.00
2673;BME280;1346;51.558;6.996;2022-09-09T06:26:02;100303.28;;;16.60;100.00
2673;BME280;1346;51.558;6.996;2022-09-09T06:28:31;100287.72;;;16.69;100.00
2673;BME280;1346;51.558;6.996;2022-09-09T06:30:59;100289.59;;;16.75;100.00
2673;BME280;1346;51.558;6.996;2022-09-09T06:33:26;100296.28;;;16.79;100.00
2673;BME280;1346;51.558;6.996;2022-09-09T06:35:54;100299.00;;;16.85;100.00
2673;BME280;1346;51.558;6.996;2022-09-09T06:38:22;100300.91;;;16.92;100.00
2673;BME280;1346;51.558;6.996;2022-09-09T06:40:56;100298.44;;;16.97;100.00
2673;BME280;1346;51.558;6.996;2022-09-09T06:43:23;100298.03;;;17.00;100.00
2673;BME280;1346;51.558;6.996;2022-09-09T06:45:55;100301.16;;;17.03;100.00
2673;BME280;1346;51.558;6.996;2022-09-09T06:48:22;100294.28;;;17.07;100.00
2673;BME280;1346;51.558;6.996;2022-09-09T06:50:51;100302.22;;;17.15;100.00
2673;BME280;1346;51.558;6.996;2022-09-09T06:53:26;100298.28;;;17.24;100.00
2673;BME280;1346;51.558;6.996;2022-09-09T06:55:54;100304.13;;;17.34;100.00
2673;BME280;1346;51.558;6.996;2022-09-09T06:58:21;100298.31;;;17.44;100.00
2673;BME280;1346;51.558;6.996;2022-09-09T07:00:48;100305.84;;;17.55;100.00
2673;BME280;1346;51.558;6.996;2022-09-09T07:03:16;100307.75;;;17.61;100.00
2673;BME280;1346;51.558;6.996;2022-09-09T07:05:43;100301.25;;;17.68;100.00
2673;BME280;1346;51.558;6.996;2022-09-09T07:08:11;100312.72;;;17.70;100.00
2673;BME280;1346;51.558;6.996;2022-09-09T07:10:37;100309.38;;;17.75;100.00
2673;BME280;1346;51.558;6.996;2022-09-09T07:13:06;100304.59;;;17.77;100.00
2673;BME280;1346;51.558;6.996;2022-09-09T07:15:33;100314.00;;;17.81;100.00
2673;BME280;1346;51.558;6.996;2022-09-09T07:18:01;100310.63;;;17.85;100.00
2673;BME280;1346;51.558;6.996;2022-09-09T07:20:28;100313.34;;;17.85;100.00
2673;BME280;1346;51.558;6.996;2022-09-09T07:22:55;100311.47;;;17.86;100.00
2673;BME280;1346;51.558;6.996;2022-09-09T07:25:24;100323.97;;;17.87;100.00
2673;BME280;1346;51.558;6.996;2022-09-09T07:27:52;100325.66;;;17.88;100.00
2673;BME280;1346;51.558;6.996;2022-09-09T07:30:21;100317.31;;;17.89;100.00
2673;BME280;1346;51.558;6.996;2022-09-09T07:32:50;100332.31;;;17.92;100.00
2673;BME280;1346;51.558;6.996;2022-09-09T07:35:17;100329.41;;;18.00;100.00
2673;BME280;1346;51.558;6.996;2022-09-09T07:37:44;100330.84;;;18.16;100.00
2673;BME280;1346;51.558;6.996;2022-09-09T07:40:12;100318.91;;;18.30;100.00
2673;BME280;1346;51.558;6.996;2022-09-09T07:42:39;100332.28;;;18.44;100.00
2673;BME280;1346;51.558;6.996;2022-09-09T07:45:06;100324.94;;;18.58;100.00
2673;BME280;1346;51.558;6.996;2022-09-09T07:47:34;100331.78;;;18.73;100.00
2673;BME280;1346;51.558;6.996;2022-09-09T07:50:02;100327.94;;;18.87;100.00
2673;BME280;1346;51.558;6.996;2022-09-09T07:52:29;100321.84;;;18.98;100.00
2673;BME280;1346;51.558;6.996;2022-09-09T07:54:56;100328.28;;;19.04;100.00
2673;BME280;1346;51.558;6.996;2022-09-09T07:57:23;100330.41;;;19.02;100.00
2673;BME280;1346;51.558;6.996;2022-09-09T07:59:50;100330.81;;;18.99;100.00
2673;BME280;1346;51.558;6.996;2022-09-09T08:02:17;100342.31;;;18.94;100.00
2673;BME280;1346;51.558;6.996;2022-09-09T08:04:45;100336.31;;;18.86;100.00
2673;BME280;1346;51.558;6.996;2022-09-09T08:07:13;100333.44;;;18.74;100.00
2673;BME280;1346;51.558;6.996;2022-09-09T08:09:40;100341.59;;;18.68;100.00
2673;BME280;1346;51.558;6.996;2022-09-09T08:12:07;100336.81;;;18.70;100.00
2673;BME280;1346;51.558;6.996;2022-09-09T08:14:34;100335.53;;;18.72;100.00
2673;BME280;1346;51.558;6.996;2022-09-09T08:17:02;100337.19;;;18.67;100.00
2673;BME280;1346;51.558;6.996;2022-09-09T08:19:29;100340.56;;;18.62;100.00
2673;BME280;1346;51.558;6.996;2022-09-09T08:22:01;100344.34;;;18.55;100.00
2673;BME280;1346;51.558;6.996;2022-09-09T08:24:28;100350.44;;;18.44;100.00
2673;BME280;1346;51.558;6.996;2022-09-09T08:26:55;100341.66;;;18.35;100.00
2673;BME280;1346;51.558;6.996;2022-09-09T08:29:23;100346.66;;;18.32;100.00
2673;BME280;1346;51.558;6.996;2022-09-09T08:31:52;100343.94;;;18.32;100.00
2673;BME280;1346;51.558;6.996;2022-09-09T08:34:20;100355.22;;;18.29;100.00
2673;BME280;1346;51.558;6.996;2022-09-09T08:36:49;100351.47;;;18.30;100.00
2673;BME280;1346;51.558;6.996;2022-09-09T08:39:20;100347.72;;;18.37;100.00
2673;BME280;1346;51.558;6.996;2022-09-09T08:42:31;100354.59;;;18.40;100.00
2673;BME280;1346;51.558;6.996;2022-09-09T08:45:14;100354.78;;;18.38;100.00
2673;BME280;1346;51.558;6.996;2022-09-09T08:48:01;100355.63;;;18.39;100.00
2673;BME280;1346;51.558;6.996;2022-09-09T08:50:35;100353.16;;;18.44;100.00
2673;BME280;1346;51.558;6.996;2022-09-09T08:53:09;100356.84;;;18.62;100.00
2673;BME280;1346;51.558;6.996;2022-09-09T08:55:43;100350.31;;;18.83;100.00
2673;BME280;1346;51.558;6.996;2022-09-09T08:58:14;100357.16;;;18.98;100.00
2673;BME280;1346;51.558;6.996;2022-09-09T09:01:09;100360.44;;;19.07;100.00
2673;BME280;1346;51.558;6.996;2022-09-09T09:03:51;100352.88;;;19.09;100.00
2673;BME280;1346;51.558;6.996;2022-09-09T09:06:35;100365.25;;;19.05;100.00
2673;BME280;1346;51.558;6.996;2022-09-09T09:09:13;100351.06;;;19.03;100.00
2673;BME280;1346;51.558;6.996;2022-09-09T09:11:49;100348.72;;;19.13;100.00
2673;BME280;1346;51.558;6.996;2022-09-09T09:14:20;100342.59;;;19.24;100.00
2673;BME280;1346;51.558;6.996;2022-09-09T09:16:52;100345.72;;;19.27;100.00
2673;BME280;1346;51.558;6.996;2022-09-09T09:19:20;100340.44;;;19.39;100.00
2673;BME280;1346;51.558;6.996;2022-09-09T09:21:53;100350.13;;;19.60;100.00
2673;BME280;1346;51.558;6.996;2022-09-09T09:24:30;100353.25;;;19.88;100.00
2673;BME280;1346;51.558;6.996;2022-09-09T09:27:13;100351.13;;;20.21;100.00
2673;BME280;1346;51.558;6.996;2022-09-09T09:29:43;100353.09;;;20.50;100.00
2673;BME280;1346;51.558;6.996;2022-09-09T09:32:15;100355.63;;;20.70;100.00
2673;BME280;1346;51.558;6.996;2022-09-09T09:34:49;100361.53;;;20.85;100.00
2673;BME280;1346;51.558;6.996;2022-09-09T09:37:23;100356.44;;;20.88;100.00
2673;BME280;1346;51.558;6.996;2022-09-09T09:39:54;100362.78;;;20.82;100.00
2673;BME280;1346;51.558;6.996;2022-09-09T09:42:22;100363.03;;;20.81;100.00
2673;BME280;1346;51.558;6.996;2022-09-09T09:44:50;100361.84;;;20.77;98.65
2673;BME280;1346;51.558;6.996;2022-09-09T09:47:20;100358.41;;;20.81;98.49
2673;BME280;1346;51.558;6.996;2022-09-09T09:49:54;100368.03;;;20.84;97.48
2673;BME280;1346;51.558;6.996;2022-09-09T09:52:23;100367.34;;;20.88;97.56
2673;BME280;1346;51.558;6.996;2022-09-09T09:54:52;100359.88;;;20.84;97.84
2673;BME280;1346;51.558;6.996;2022-09-09T09:57:26;100356.97;;;20.79;98.39
2673;BME280;1346;51.558;6.996;2022-09-09T10:00:04;100367.44;;;20.82;98.39
2673;BME280;1346;51.558;6.996;2022-09-09T10:02:41;100360.75;;;20.78;99.41
2673;BME280;1346;51.558;6.996;2022-09-09T10:05:15;100365.22;;;20.72;100.00
2673;BME280;1346;51.558;6.996;2022-09-09T10:07:42;100362.13;;;20.69;99.86
2673;BME280;1346;51.558;6.996;2022-09-09T10:10:18;100372.84;;;20.64;100.00
2673;BME280;1346;51.558;6.996;2022-09-09T10:12:57;100361.81;;;20.59;100.00
2673;BME280;1346;51.558;6.996;2022-09-09T10:15:39;100362.13;;;20.51;100.00
2673;BME280;1346;51.558;6.996;2022-09-09T10:18:36;100363.19;;;20.50;100.00
2673;BME280;1346;51.558;6.996;2022-09-09T10:21:19;100370.03;;;20.52;100.00
2673;BME280;1346;51.558;6.996;2022-09-09T10:24:08;100362.34;;;20.49;100.00
2673;BME280;1346;51.558;6.996;2022-09-09T10:26:46;100367.09;;;20.54;100.00
2673;BME280;1346;51.558;6.996;2022-09-09T10:29:33;100364.75;;;20.57;100.00
2673;BME280;1346;51.558;6.996;2022-09-09T10:32:33;100357.66;;;20.74;97.94
2673;BME280;1346;51.558;6.996;2022-09-09T10:35:11;100356.38;;;20.95;97.82
2673;BME280;1346;51.558;6.996;2022-09-09T10:38:11;100360.53;;;21.15;95.15
2673;BME280;1346;51.558;6.996;2022-09-09T10:40:50;100342.59;;;21.26;92.54
2673;BME280;1346;51.558;6.996;2022-09-09T10:43:54;100340.63;;;21.44;93.52
2673;BME280;1346;51.558;6.996;2022-09-09T10:46:36;100336.56;;;21.65;90.42
2673;BME280;1346;51.558;6.996;2022-09-09T10:49:17;100344.13;;;21.63;88.71
2673;BME280;1346;51.558;6.996;2022-09-09T10:51:55;100345.25;;;21.44;87.19
2673;BME280;1346;51.558;6.996;2022-09-09T10:54:42;100337.94;;;21.26;87.70
2673;BME280;1346;51.558;6.996;2022-09-09T10:57:17;100338.59;;;21.10;88.06
2673;BME280;1346;51.558;6.996;2022-09-09T10:59:53;100342.13;;;20.93;88.51
2673;BME280;1346;51.558;6.996;2022-09-09T11:02:27;100366.59;;;20.81;91.82
2673;BME280;1346;51.558;6.996;2022-09-09T11:04:59;100348.31;;;20.70;90.30
2673;BME280;1346;51.558;6.996;2022-09-09T11:07:36;100341.50;;;20.61;91.22
2673;BME280;1346;51.558;6.996;2022-09-09T11:10:14;100339.81;;;20.60;92.13
2673;BME280;1346;51.558;6.996;2022-09-09T11:12:46;100343.13;;;20.62;91.52
2673;BME280;1346;51.558;6.996;2022-09-09T11:15:20;100347.09;;;20.66;93.60
2673;BME280;1346;51.558;6.996;2022-09-09T11:17:55;100340.19;;;20.64;92.73
2673;BME280;1346;51.558;6.996;2022-09-09T11:20:23;100338.69;;;20.68;93.73
2673;BME280;1346;51.558;6.996;2022-09-09T11:22:56;100348.81;;;20.79;93.41
2673;BME280;1346;51.558;6.996;2022-09-09T11:25:29;100337.78;;;20.92;92.56
2673;BME280;1346;51.558;6.996;2022-09-09T11:28:24;100329.91;;;21.02;92.11
2673;BME280;1346;51.558;6.996;2022-09-09T11:31:10;100329.34;;;21.11;92.45
2673;BME280;1346;51.558;6.996;2022-09-09T11:34:13;100330.34;;;21.17;92.44
2673;BME280;1346;51.558;6.996;2022-09-09T11:40:16;100331.84;;;21.13;93.66
2673;BME280;1346;51.558;6.996;2022-09-09T11:42:44;100327.34;;;21.07;92.30
2673;BME280;1346;51.558;6.996;2022-09-09T11:45:23;100329.31;;;21.00;94.01
2673;BME280;1346;51.558;6.996;2022-09-09T11:47:53;100331.84;;;20.95;94.92
2673;BME280;1346;51.558;6.996;2022-09-09T11:50:37;100329.00;;;20.90;92.53
2673;BME280;1346;51.558;6.996;2022-09-09T11:53:20;100330.72;;;20.84;93.08
2673;BME280;1346;51.558;6.996;2022-09-09T11:56:00;100328.84;;;20.85;93.66
2673;BME280;1346;51.558;6.996;2022-09-09T11:58:28;100319.09;;;20.95;94.87
2673;BME280;1346;51.558;6.996;2022-09-09T12:00:58;100323.38;;;21.21;95.24
2673;BME280;1346;51.558;6.996;2022-09-09T12:03:42;100320.50;;;21.57;92.07
2673;BME280;1346;51.558;6.996;2022-09-09T12:06:16;100313.84;;;21.83;90.27
2673;BME280;1346;51.558;6.996;2022-09-09T12:08:48;100316.94;;;21.86;89.14
2673;BME280;1346;51.558;6.996;2022-09-09T12:11:26;100314.81;;;21.88;89.83
2673;BME280;1346;51.558;6.996;2022-09-09T12:13:54;100321.09;;;21.89;89.43
2673;BME280;1346;51.558;6.996;2022-09-09T12:16:31;100333.75;;;21.83;91.41
2673;BME280;1346;51.558;6.996;2022-09-09T12:19:06;100322.72;;;21.78;92.67
2673;BME280;1346;51.558;6.996;2022-09-09T12:21:40;100321.81;;;21.96;93.68
2673;BME280;1346;51.558;6.996;2022-09-09T12:24:14;100326.56;;;22.23;92.13
2673;BME280;1346;51.558;6.996;2022-09-09T12:26:51;100336.03;;;22.44;91.16
2673;BME280;1346;51.558;6.996;2022-09-09T12:29:28;100328.69;;;22.56;92.78
2673;BME280;1346;51.558;6.996;2022-09-09T12:32:04;100323.34;;;22.38;92.03
2673;BME280;1346;51.558;6.996;2022-09-09T12:34:39;100327.28;;;22.07;92.68
2673;BME280;1346;51.558;6.996;2022-09-09T12:37:27;100339.31;;;21.77;90.85
2673;BME280;1346;51.558;6.996;2022-09-09T12:39:58;100334.50;;;21.60;89.83
2673;BME280;1346;51.558;6.996;2022-09-09T12:42:26;100319.19;;;21.48;91.00
2673;BME280;1346;51.558;6.996;2022-09-09T12:44:56;100331.84;;;21.42;91.72
2673;BME280;1346;51.558;6.996;2022-09-09T12:47:30;100324.38;;;21.38;92.29
2673;BME280;1346;51.558;6.996;2022-09-09T12:50:01;100334.06;;;21.34;93.26
2673;BME280;1346;51.558;6.996;2022-09-09T12:52:34;100332.56;;;21.38;92.80
2673;BME280;1346;51.558;6.996;2022-09-09T12:55:06;100314.28;;;21.38;92.45
2673;BME280;1346;51.558;6.996;2022-09-09T12:57:37;100328.97;;;21.26;94.75
2673;BME280;1346;51.558;6.996;2022-09-09T13:00:11;100339.88;;;21.08;96.19
2673;BME280;1346;51.558;6.996;2022-09-09T13:02:48;100371.28;;;20.74;100.00
2673;BME280;1346;51.558;6.996;2022-09-09T13:05:18;100375.06;;;20.06;100.00
2673;BME280;1346;51.558;6.996;2022-09-09T13:07:47;100363.38;;;19.50;100.00
2673;BME280;1346;51.558;6.996;2022-09-09T13:10:21;100351.19;;;19.14;100.00
2673;BME280;1346;51.558;6.996;2022-09-09T13:12:50;100350.09;;;18.84;100.00
2673;BME280;1346;51.558;6.996;2022-09-09T13:15:22;100356.19;;;18.67;100.00
2673;BME280;1346;51.558;6.996;2022-09-09T13:17:55;100352.72;;;18.47;100.00
2673;BME280;1346;51.558;6.996;2022-09-09T13:20:23;100342.31;;;18.24;100.00
2673;BME280;1346;51.558;6.996;2022-09-09T13:22:54;100337.94;;;18.17;100.00
2673;BME280;1346;51.558;6.996;2022-09-09T13:25:24;100340.88;;;18.08;100.00
2673;BME280;1346;51.558;6.996;2022-09-09T13:27:58;100339.00;;;17.96;100.00
2673;BME280;1346;51.558;6.996;2022-09-09T13:30:29;100335.03;;;17.85;100.00
2673;BME280;1346;51.558;6.996;2022-09-09T13:33:01;100343.38;;;17.84;100.00
2673;BME280;1346;51.558;6.996;2022-09-09T13:35:28;100340.06;;;17.88;100.00